createdAt,value
2022-10-25T00:03:49.636Z,4.80
2022-10-25T00:08:52.210Z,5.45
2022-10-25T00:13:56.023Z,5.53
2022-10-25T00:18:57.920Z,5.28
2022-10-25T00:23:59.639Z,5.13
2022-10-25T00:29:01.313Z,5.00
2022-10-25T00:34:03.075Z,4.73
2022-10-25T00:39:05.029Z,5.30
2022-10-25T00:44:40.890Z,4.50
2022-10-25T00:49:44.326Z,4.87
2022-10-25T00:54:52.554Z,4.57
2022-10-25T00:59:54.356Z,4.90
2022-10-25T01:04:56.375Z,5.10
2022-10-25T01:09:58.381Z,5.38
2022-10-25T01:15:01.863Z,6.07
2022-10-25T01:20:28.254Z,3.40
2022-10-25T01:25:55.377Z,2.92
2022-10-25T01:31:23.943Z,2.40
2022-10-25T01:36:59.882Z,2.38
2022-10-25T01:42:41.973Z,1.80
2022-10-25T01:47:49.853Z,1.70
2022-10-25T01:52:52.077Z,1.20
2022-10-25T01:58:33.754Z,1.75
2022-10-25T02:03:41.739Z,0.82
2022-10-25T02:08:50.701Z,1.00
2022-10-25T02:14:07.708Z,1.05
2022-10-25T02:19:14.050Z,1.00
2022-10-25T02:24:23.357Z,1.27
2022-10-25T02:29:27.898Z,1.40
2022-10-25T02:34:29.704Z,1.00
2022-10-25T02:39:31.931Z,1.00
2022-10-25T02:44:33.666Z,0.90
2022-10-25T02:49:35.379Z,1.00
2022-10-25T02:54:37.032Z,0.97
2022-10-25T02:59:38.698Z,1.33
2022-10-25T03:04:40.483Z,0.88
2022-10-25T03:09:42.165Z,0.85
2022-10-25T03:14:43.817Z,1.70
2022-10-25T03:19:45.497Z,0.82
2022-10-25T03:24:47.216Z,1.07
2022-10-25T03:29:48.866Z,1.50
2022-10-25T03:34:50.505Z,1.08
2022-10-25T03:39:52.182Z,1.98
2022-10-25T03:44:53.888Z,1.90
2022-10-25T03:49:55.550Z,1.17
2022-10-25T03:54:57.235Z,1.40
2022-10-25T03:59:58.905Z,1.43
2022-10-25T04:05:00.579Z,1.30
2022-10-25T04:10:02.487Z,1.48
2022-10-25T04:15:04.606Z,0.90
2022-10-25T04:20:07.023Z,1.27
2022-10-25T04:25:09.058Z,0.98
2022-10-25T04:30:11.297Z,1.87
2022-10-25T04:35:12.992Z,1.08
2022-10-25T04:40:14.766Z,1.25
2022-10-25T04:45:16.459Z,1.10
2022-10-25T04:50:18.170Z,1.10
2022-10-25T04:55:19.823Z,1.20
2022-10-25T05:00:21.526Z,1.20
2022-10-25T05:05:24.943Z,1.20
2022-10-25T05:10:26.639Z,2.22
2022-10-25T05:15:29.007Z,1.60
2022-10-25T05:20:30.690Z,1.30
2022-10-25T05:25:32.306Z,1.10
2022-10-25T05:30:33.951Z,1.75
2022-10-25T05:35:35.775Z,1.17
2022-10-25T05:40:37.467Z,1.23
2022-10-25T05:45:39.117Z,1.95
2022-10-25T05:55:43.520Z,1.80
2022-10-25T06:00:45.186Z,2.17
2022-10-25T06:05:46.843Z,1.93
2022-10-25T06:15:55.218Z,1.60
2022-10-25T06:21:00.421Z,1.83
2022-10-25T06:26:08.023Z,1.38
2022-10-25T06:31:15.390Z,1.60
2022-10-25T06:36:19.993Z,1.92
2022-10-25T06:41:26.820Z,2.13
2022-10-25T06:46:30.355Z,1.60
2022-10-25T06:51:32.953Z,2.05
2022-10-25T06:56:35.207Z,1.50
2022-10-25T07:01:37.097Z,2.00
2022-10-25T07:06:38.929Z,2.70
2022-10-25T07:11:40.623Z,2.25
2022-10-25T07:16:42.460Z,1.63
2022-10-25T07:21:44.147Z,2.00
2022-10-25T07:26:45.802Z,2.63
2022-10-25T07:31:48.580Z,1.48
2022-10-25T07:36:50.260Z,1.17
2022-10-25T07:41:53.819Z,1.40
2022-10-25T07:46:55.489Z,1.50
2022-10-25T07:51:57.219Z,1.70
2022-10-25T07:56:58.872Z,0.90
2022-10-25T08:02:00.542Z,1.13
2022-10-25T08:07:02.227Z,1.38
2022-10-25T08:12:03.992Z,0.80
2022-10-25T08:17:05.740Z,0.73
2022-10-25T08:22:07.430Z,0.95
2022-10-25T08:27:09.113Z,1.03
2022-10-25T08:32:10.773Z,1.05
2022-10-25T08:37:13.100Z,1.00
2022-10-25T08:42:27.067Z,1.90
2022-10-25T08:47:39.107Z,1.67
2022-10-25T08:52:46.450Z,2.30
2022-10-25T08:57:49.491Z,2.13
2022-10-25T09:02:59.652Z,1.95
2022-10-25T09:08:21.546Z,1.73
2022-10-25T09:13:43.337Z,1.95
2022-10-25T09:18:53.217Z,2.15
2022-10-25T09:24:20.314Z,1.80
2022-10-25T09:29:28.525Z,1.38
2022-10-25T09:34:32.468Z,1.17
2022-10-25T09:39:40.314Z,1.45
2022-10-25T09:44:59.857Z,1.40
2022-10-25T09:50:12.103Z,2.47
2022-10-25T09:55:41.916Z,2.03
2022-10-25T10:00:43.807Z,1.65
2022-10-25T10:05:53.349Z,1.65
2022-10-25T10:10:56.367Z,1.63
2022-10-25T10:16:05.113Z,1.90
2022-10-25T10:21:06.849Z,1.37
2022-10-25T10:26:27.317Z,1.40
2022-10-25T10:31:44.724Z,2.20
2022-10-25T10:36:46.426Z,1.63
2022-10-25T10:41:57.451Z,1.23
2022-10-25T10:46:59.281Z,1.37
2022-10-25T10:52:01.032Z,1.23
2022-10-25T10:57:05.312Z,1.30
2022-10-25T11:02:42.291Z,1.40
2022-10-25T11:07:44.788Z,1.15
2022-10-25T11:13:24.221Z,1.33
2022-10-25T11:18:49.883Z,1.30
2022-10-25T11:24:10.960Z,1.35
2022-10-25T11:29:40.536Z,1.30
2022-10-25T11:34:45.250Z,1.65
2022-10-25T11:39:52.845Z,1.92
2022-10-25T11:45:31.781Z,1.40
2022-10-25T11:51:04.251Z,1.47
2022-10-25T11:56:17.666Z,1.55
2022-10-25T12:01:56.735Z,1.57
2022-10-25T12:07:01.118Z,1.57
2022-10-25T12:12:08.323Z,1.13
2022-10-25T12:17:29.429Z,1.98
2022-10-25T12:22:37.662Z,1.83
2022-10-25T12:27:42.087Z,1.60
2022-10-25T12:32:55.519Z,1.67
2022-10-25T12:38:01.625Z,1.47
2022-10-25T12:43:19.287Z,1.77
2022-10-25T12:48:39.492Z,2.30
2022-10-25T12:54:23.068Z,1.87
2022-10-25T12:59:51.918Z,2.22
2022-10-25T13:05:32.678Z,2.20
2022-10-25T13:10:42.208Z,1.83
2022-10-25T13:15:57.325Z,1.80
2022-10-25T13:21:04.555Z,1.85
2022-10-25T13:26:09.554Z,2.03
2022-10-25T13:31:36.348Z,2.13
2022-10-25T13:36:53.830Z,1.90
2022-10-25T13:42:16.405Z,2.60
2022-10-25T13:47:42.389Z,3.22
2022-10-25T13:53:01.742Z,2.63
2022-10-25T13:58:32.196Z,3.03
2022-10-25T14:04:03.551Z,2.30
2022-10-25T14:09:33.861Z,2.30
2022-10-25T14:14:48.750Z,3.10
2022-10-25T14:19:57.527Z,2.50
2022-10-25T14:25:21.153Z,3.30
2022-10-25T14:30:29.329Z,2.50
2022-10-25T14:35:45.111Z,2.93
2022-10-25T14:40:58.188Z,3.45
2022-10-25T14:46:02.724Z,2.95
2022-10-25T14:51:07.983Z,2.97
2022-10-25T14:56:09.621Z,3.55
2022-10-25T15:01:12.187Z,2.47
2022-10-25T15:06:15.375Z,3.60
2022-10-25T15:11:19.403Z,3.05
2022-10-25T15:16:47.403Z,3.03
2022-10-25T15:21:51.941Z,3.45
2022-10-25T15:27:00.849Z,3.50
2022-10-25T15:32:02.527Z,3.47
2022-10-25T15:37:04.211Z,3.35
2022-10-25T15:42:05.984Z,3.70
2022-10-25T15:47:20.439Z,3.67
2022-10-25T15:52:22.395Z,3.65
2022-10-25T15:57:24.082Z,3.97
2022-10-25T16:02:26.538Z,3.90
2022-10-25T16:07:28.282Z,3.60
2022-10-25T16:12:32.416Z,3.80
2022-10-25T16:17:34.109Z,4.00
2022-10-25T16:22:35.830Z,3.75
2022-10-25T16:27:37.529Z,3.75
2022-10-25T16:32:39.319Z,4.15
2022-10-25T16:37:41.769Z,4.33
2022-10-25T16:42:43.886Z,3.65
2022-10-25T16:47:45.615Z,3.38
2022-10-25T16:52:47.635Z,4.10
2022-10-25T16:57:49.664Z,4.60
2022-10-25T17:02:51.781Z,4.20
2022-10-25T17:07:53.543Z,4.23
2022-10-25T17:12:56.610Z,3.70
2022-10-25T17:17:58.782Z,4.00
2022-10-25T17:23:00.461Z,3.73
2022-10-25T17:28:02.178Z,4.70
2022-10-25T17:33:03.878Z,5.70
2022-10-25T17:38:05.597Z,5.78
2022-10-25T17:43:07.253Z,5.57
2022-10-25T17:48:09.131Z,4.88
2022-10-25T17:53:10.888Z,4.28
2022-10-25T17:58:12.562Z,4.60
2022-10-25T18:03:14.344Z,4.50
2022-10-25T18:08:16.179Z,5.30
2022-10-25T18:13:17.858Z,6.32
2022-10-25T18:18:19.972Z,5.90
2022-10-25T18:23:21.711Z,5.13
2022-10-25T18:28:23.492Z,5.83
2022-10-25T18:33:25.309Z,4.95
2022-10-25T18:38:27.057Z,5.38
2022-10-25T18:43:28.998Z,5.85
2022-10-25T18:48:30.690Z,5.63
2022-10-25T18:53:32.673Z,5.65
2022-10-25T18:58:34.318Z,5.10
2022-10-25T19:03:37.146Z,4.83
2022-10-25T19:08:39.529Z,5.00
2022-10-25T19:13:41.222Z,5.43
2022-10-25T19:18:42.962Z,4.75
2022-10-25T19:23:45.375Z,4.72
2022-10-25T19:28:47.530Z,6.05
2022-10-25T19:33:50.843Z,5.13
2022-10-25T19:38:52.515Z,5.07
2022-10-25T19:43:54.798Z,5.03
2022-10-25T19:48:56.466Z,5.05
2022-10-25T19:53:58.133Z,5.00
2022-10-25T19:58:59.817Z,4.83
2022-10-25T20:04:01.506Z,4.53
2022-10-25T20:09:03.320Z,5.22
2022-10-25T20:14:05.050Z,5.00
2022-10-25T20:19:07.500Z,5.45
2022-10-25T20:24:09.990Z,5.27
2022-10-25T20:29:17.181Z,5.53
2022-10-25T20:34:22.018Z,4.80
2022-10-25T20:39:23.699Z,4.40
2022-10-25T20:44:25.461Z,4.65
2022-10-25T20:49:27.138Z,4.20
2022-10-25T20:54:28.782Z,4.13
2022-10-25T20:59:30.468Z,4.23
2022-10-25T21:09:53.739Z,4.32
2022-10-25T21:14:55.410Z,3.42
2022-10-25T21:19:57.065Z,4.38
2022-10-25T21:24:58.763Z,4.03
2022-10-25T21:30:00.468Z,4.03
2022-10-25T21:35:02.133Z,3.75
2022-10-25T21:40:04.071Z,4.32
2022-10-25T21:45:06.156Z,3.67
2022-10-25T21:50:08.717Z,4.07
2022-10-25T21:55:10.432Z,3.85
2022-10-25T22:00:12.924Z,4.05
2022-10-25T22:05:14.744Z,4.37
2022-10-25T22:10:16.514Z,4.27
2022-10-25T22:15:18.208Z,3.67
2022-10-25T22:20:20.122Z,3.70
2022-10-25T22:25:21.781Z,4.07
2022-10-25T22:30:23.471Z,3.70
2022-10-25T22:35:25.149Z,3.33
2022-10-25T22:40:26.834Z,4.30
2022-10-25T22:45:28.524Z,3.57
2022-10-25T22:50:30.204Z,3.20
2022-10-25T22:55:31.889Z,3.67
2022-10-25T23:00:33.581Z,3.22
2022-10-25T23:05:35.279Z,3.35
2022-10-25T23:10:36.935Z,4.07
2022-10-25T23:15:38.677Z,3.20
2022-10-25T23:20:51.405Z,3.95
2022-10-25T23:25:53.468Z,4.00
2022-10-25T23:30:55.131Z,3.63
2022-10-25T23:36:01.517Z,3.70
2022-10-25T23:41:03.898Z,2.85
2022-10-25T23:46:06.936Z,3.33
2022-10-25T23:51:11.262Z,3.22
2022-10-25T23:56:14.157Z,3.10
